Terminal Aerodrome Forecast
Issued by NWS

Home | Current Version | Previous Version | Text Only | Print | Product List | Glossary On
Versions: 1 2 3 4 5 6 7 8 9 10 11 12 13 14 15 16 17 18 19 20 21 22 23 24 25 26 27 28 29 30 31 32
000
FTUS45 KGJT 202326
TAFVEL
TAF
KVEL 202326Z 2100/2124 25008KT P6SM VCTS SCT050CB BKN100
     FM210300 28005KT P6SM SCT250
     FM211200 VRB04KT P6SM SCT120
     FM211800 19006KT P6SM BKN200=

USA.gov is the U.S. government's official web portal to all federal, state and local government web resources and services.